sensor_id;sensor_type;location;lat;lon;timestamp;temperature;humidity
30280;DHT22;17097;50.916;5.344;2023-08-06T00:01:58;16.90;99.90
30280;DHT22;17097;50.916;5.344;2023-08-06T00:04:23;16.80;99.90
30280;DHT22;17097;50.916;5.344;2023-08-06T00:06:52;16.80;99.90
30280;DHT22;17097;50.916;5.344;2023-08-06T00:09:17;16.70;99.90
30280;DHT22;17097;50.916;5.344;2023-08-06T00:11:45;16.70;99.90
30280;DHT22;17097;50.916;5.344;2023-08-06T00:14:13;16.80;99.90
30280;DHT22;17097;50.916;5.344;2023-08-06T00:16:43;16.80;99.90
30280;DHT22;17097;50.916;5.344;2023-08-06T00:19:09;16.80;99.90
30280;DHT22;17097;50.916;5.344;2023-08-06T00:21:37;17.00;99.90
30280;DHT22;17097;50.916;5.344;2023-08-06T00:24:02;16.90;99.90
30280;DHT22;17097;50.916;5.344;2023-08-06T00:26:28;16.90;99.90
30280;DHT22;17097;50.916;5.344;2023-08-06T00:28:54;16.90;99.90
30280;DHT22;17097;50.916;5.344;2023-08-06T00:31:21;16.80;99.90
30280;DHT22;17097;50.916;5.344;2023-08-06T00:33:47;16.80;99.90
30280;DHT22;17097;50.916;5.344;2023-08-06T00:36:13;16.90;99.90
30280;DHT22;17097;50.916;5.344;2023-08-06T00:38:38;16.90;99.90
30280;DHT22;17097;50.916;5.344;2023-08-06T00:41:04;17.00;99.90
30280;DHT22;17097;50.916;5.344;2023-08-06T00:43:32;16.70;99.90
30280;DHT22;17097;50.916;5.344;2023-08-06T00:45:59;16.70;99.90
30280;DHT22;17097;50.916;5.344;2023-08-06T00:48:25;16.90;99.90
30280;DHT22;17097;50.916;5.344;2023-08-06T00:50:54;16.70;99.90
30280;DHT22;17097;50.916;5.344;2023-08-06T00:53:19;16.70;99.90
30280;DHT22;17097;50.916;5.344;2023-08-06T00:55:45;16.60;99.90
30280;DHT22;17097;50.916;5.344;2023-08-06T00:58:14;16.60;99.90
30280;DHT22;17097;50.916;5.344;2023-08-06T01:00:40;16.60;99.90
30280;DHT22;17097;50.916;5.344;2023-08-06T01:03:06;16.70;99.90
30280;DHT22;17097;50.916;5.344;2023-08-06T01:05:34;16.80;99.90
30280;DHT22;17097;50.916;5.344;2023-08-06T01:08:09;16.90;99.90
30280;DHT22;17097;50.916;5.344;2023-08-06T01:16:00;17.20;99.90
30280;DHT22;17097;50.916;5.344;2023-08-06T01:18:26;17.20;99.90
30280;DHT22;17097;50.916;5.344;2023-08-06T01:20:54;17.20;99.90
30280;DHT22;17097;50.916;5.344;2023-08-06T01:23:24;17.00;99.90
30280;DHT22;17097;50.916;5.344;2023-08-06T01:28:40;16.80;99.90
30280;DHT22;17097;50.916;5.344;2023-08-06T01:31:14;16.90;99.90
30280;DHT22;17097;50.916;5.344;2023-08-06T01:33:43;16.90;99.90
30280;DHT22;17097;50.916;5.344;2023-08-06T01:36:17;16.80;99.90
30280;DHT22;17097;50.916;5.344;2023-08-06T01:38:44;16.80;99.90
30280;DHT22;17097;50.916;5.344;2023-08-06T01:41:12;16.80;99.90
30280;DHT22;17097;50.916;5.344;2023-08-06T01:43:37;16.70;99.90
30280;DHT22;17097;50.916;5.344;2023-08-06T01:46:03;16.60;99.90
30280;DHT22;17097;50.916;5.344;2023-08-06T01:48:29;16.60;99.90
30280;DHT22;17097;50.916;5.344;2023-08-06T01:50:57;16.50;99.90
30280;DHT22;17097;50.916;5.344;2023-08-06T01:53:22;16.50;99.90
30280;DHT22;17097;50.916;5.344;2023-08-06T01:55:49;16.70;99.90
30280;DHT22;17097;50.916;5.344;2023-08-06T01:58:17;16.70;99.90
30280;DHT22;17097;50.916;5.344;2023-08-06T02:00:43;16.70;99.90
30280;DHT22;17097;50.916;5.344;2023-08-06T02:03:08;16.60;99.90
30280;DHT22;17097;50.916;5.344;2023-08-06T02:05:34;16.70;99.90
30280;DHT22;17097;50.916;5.344;2023-08-06T02:08:02;16.70;99.90
30280;DHT22;17097;50.916;5.344;2023-08-06T02:10:27;16.80;99.90
30280;DHT22;17097;50.916;5.344;2023-08-06T02:12:55;16.70;99.90
30280;DHT22;17097;50.916;5.344;2023-08-06T02:15:23;16.70;99.90
30280;DHT22;17097;50.916;5.344;2023-08-06T02:17:49;16.70;99.90
30280;DHT22;17097;50.916;5.344;2023-08-06T02:20:14;16.70;99.90
30280;DHT22;17097;50.916;5.344;2023-08-06T02:22:42;16.70;99.90
30280;DHT22;17097;50.916;5.344;2023-08-06T02:25:08;16.80;99.90
30280;DHT22;17097;50.916;5.344;2023-08-06T02:27:34;16.80;99.90
30280;DHT22;17097;50.916;5.344;2023-08-06T02:30:02;16.80;99.90
30280;DHT22;17097;50.916;5.344;2023-08-06T02:32:30;16.80;99.90
30280;DHT22;17097;50.916;5.344;2023-08-06T02:34:59;16.80;99.90
30280;DHT22;17097;50.916;5.344;2023-08-06T02:37:27;16.90;99.90
30280;DHT22;17097;50.916;5.344;2023-08-06T02:39:52;16.80;99.90
30280;DHT22;17097;50.916;5.344;2023-08-06T02:42:23;16.90;99.90
30280;DHT22;17097;50.916;5.344;2023-08-06T02:44:49;16.90;99.90
30280;DHT22;17097;50.916;5.344;2023-08-06T02:47:17;16.90;99.90
30280;DHT22;17097;50.916;5.344;2023-08-06T02:49:43;16.90;99.90
30280;DHT22;17097;50.916;5.344;2023-08-06T02:52:09;16.90;99.90
30280;DHT22;17097;50.916;5.344;2023-08-06T02:54:34;17.00;99.90
30280;DHT22;17097;50.916;5.344;2023-08-06T02:57:00;17.00;99.90
30280;DHT22;17097;50.916;5.344;2023-08-06T02:59:25;17.00;99.90
30280;DHT22;17097;50.916;5.344;2023-08-06T03:01:51;17.00;99.90
30280;DHT22;17097;50.916;5.344;2023-08-06T03:04:17;16.90;99.90
30280;DHT22;17097;50.916;5.344;2023-08-06T03:06:45;16.90;99.90
30280;DHT22;17097;50.916;5.344;2023-08-06T03:09:11;16.90;99.90
30280;DHT22;17097;50.916;5.344;2023-08-06T03:11:36;16.90;99.90
30280;DHT22;17097;50.916;5.344;2023-08-06T03:14:02;17.00;99.90
30280;DHT22;17097;50.916;5.344;2023-08-06T03:16:27;17.00;99.90
30280;DHT22;17097;50.916;5.344;2023-08-06T03:18:55;17.00;99.90
30280;DHT22;17097;50.916;5.344;2023-08-06T03:21:21;17.00;99.90
30280;DHT22;17097;50.916;5.344;2023-08-06T03:23:51;17.10;99.90
30280;DHT22;17097;50.916;5.344;2023-08-06T03:26:17;17.00;99.90
30280;DHT22;17097;50.916;5.344;2023-08-06T03:28:42;17.00;99.90
30280;DHT22;17097;50.916;5.344;2023-08-06T03:31:08;16.80;99.90
30280;DHT22;17097;50.916;5.344;2023-08-06T03:33:34;16.80;99.90
30280;DHT22;17097;50.916;5.344;2023-08-06T03:36:00;16.90;99.90
30280;DHT22;17097;50.916;5.344;2023-08-06T03:38:26;16.90;99.90
30280;DHT22;17097;50.916;5.344;2023-08-06T03:40:51;17.00;99.90
30280;DHT22;17097;50.916;5.344;2023-08-06T03:43:22;17.00;99.90
30280;DHT22;17097;50.916;5.344;2023-08-06T03:45:50;17.00;99.90
30280;DHT22;17097;50.916;5.344;2023-08-06T03:48:15;17.00;99.90
30280;DHT22;17097;50.916;5.344;2023-08-06T03:50:41;17.00;99.90
30280;DHT22;17097;50.916;5.344;2023-08-06T03:53:07;17.10;99.90
30280;DHT22;17097;50.916;5.344;2023-08-06T03:55:32;17.10;99.90
30280;DHT22;17097;50.916;5.344;2023-08-06T03:57:58;17.00;99.90
30280;DHT22;17097;50.916;5.344;2023-08-06T04:00:24;17.20;99.90
30280;DHT22;17097;50.916;5.344;2023-08-06T04:02:49;17.30;99.90
30280;DHT22;17097;50.916;5.344;2023-08-06T04:05:16;17.30;99.90
30280;DHT22;17097;50.916;5.344;2023-08-06T04:07:42;17.20;99.90
30280;DHT22;17097;50.916;5.344;2023-08-06T04:10:08;17.20;99.90
30280;DHT22;17097;50.916;5.344;2023-08-06T04:12:34;17.10;99.90
30280;DHT22;17097;50.916;5.344;2023-08-06T04:15:01;17.20;99.90
30280;DHT22;17097;50.916;5.344;2023-08-06T04:17:27;17.10;99.90
30280;DHT22;17097;50.916;5.344;2023-08-06T04:19:54;17.10;99.90
30280;DHT22;17097;50.916;5.344;2023-08-06T04:22:21;17.10;99.90
30280;DHT22;17097;50.916;5.344;2023-08-06T04:24:47;17.10;99.90
30280;DHT22;17097;50.916;5.344;2023-08-06T04:27:16;17.10;99.90
30280;DHT22;17097;50.916;5.344;2023-08-06T04:29:42;17.10;99.90
30280;DHT22;17097;50.916;5.344;2023-08-06T04:32:11;17.10;99.90
30280;DHT22;17097;50.916;5.344;2023-08-06T04:34:37;17.10;99.90
30280;DHT22;17097;50.916;5.344;2023-08-06T04:37:04;17.10;99.90
30280;DHT22;17097;50.916;5.344;2023-08-06T04:39:29;17.10;99.90
30280;DHT22;17097;50.916;5.344;2023-08-06T04:41:56;17.10;99.90
30280;DHT22;17097;50.916;5.344;2023-08-06T04:44:24;17.10;99.90
30280;DHT22;17097;50.916;5.344;2023-08-06T04:46:54;17.10;99.90
30280;DHT22;17097;50.916;5.344;2023-08-06T04:49:20;17.10;99.90
30280;DHT22;17097;50.916;5.344;2023-08-06T04:51:46;17.10;99.90
30280;DHT22;17097;50.916;5.344;2023-08-06T04:54:11;17.10;99.90
30280;DHT22;17097;50.916;5.344;2023-08-06T04:56:37;17.20;99.90
30280;DHT22;17097;50.916;5.344;2023-08-06T04:59:03;17.30;99.90
30280;DHT22;17097;50.916;5.344;2023-08-06T05:01:31;17.20;99.90
30280;DHT22;17097;50.916;5.344;2023-08-06T05:03:56;17.20;99.90
30280;DHT22;17097;50.916;5.344;2023-08-06T05:06:22;17.20;99.90
30280;DHT22;17097;50.916;5.344;2023-08-06T05:08:50;17.20;99.90
30280;DHT22;17097;50.916;5.344;2023-08-06T05:11:16;17.30;99.90
30280;DHT22;17097;50.916;5.344;2023-08-06T05:13:41;17.20;99.90
30280;DHT22;17097;50.916;5.344;2023-08-06T05:16:07;17.20;99.90
30280;DHT22;17097;50.916;5.344;2023-08-06T05:18:32;17.20;99.90
30280;DHT22;17097;50.916;5.344;2023-08-06T05:20:59;17.30;99.90
30280;DHT22;17097;50.916;5.344;2023-08-06T05:23:25;17.20;99.90
30280;DHT22;17097;50.916;5.344;2023-08-06T05:25:51;17.10;99.90
30280;DHT22;17097;50.916;5.344;2023-08-06T05:28:16;17.10;99.90
30280;DHT22;17097;50.916;5.344;2023-08-06T05:30:42;17.10;99.90
30280;DHT22;17097;50.916;5.344;2023-08-06T05:33:08;17.10;99.90
30280;DHT22;17097;50.916;5.344;2023-08-06T05:35:36;17.10;99.90
30280;DHT22;17097;50.916;5.344;2023-08-06T05:38:01;17.20;99.90
30280;DHT22;17097;50.916;5.344;2023-08-06T05:40:29;17.30;99.90
30280;DHT22;17097;50.916;5.344;2023-08-06T05:42:55;17.30;99.90
30280;DHT22;17097;50.916;5.344;2023-08-06T05:45:20;17.30;99.90
30280;DHT22;17097;50.916;5.344;2023-08-06T05:47:48;17.10;99.90
30280;DHT22;17097;50.916;5.344;2023-08-06T05:50:14;17.00;99.90
30280;DHT22;17097;50.916;5.344;2023-08-06T05:52:39;17.00;99.90
30280;DHT22;17097;50.916;5.344;2023-08-06T05:55:05;16.70;99.90
30280;DHT22;17097;50.916;5.344;2023-08-06T05:57:31;16.80;99.90
30280;DHT22;17097;50.916;5.344;2023-08-06T05:59:57;16.70;99.90
30280;DHT22;17097;50.916;5.344;2023-08-06T06:02:22;16.70;99.90
30280;DHT22;17097;50.916;5.344;2023-08-06T06:04:48;16.70;99.90
30280;DHT22;17097;50.916;5.344;2023-08-06T06:07:13;16.90;99.90
30280;DHT22;17097;50.916;5.344;2023-08-06T06:09:39;16.80;99.90
30280;DHT22;17097;50.916;5.344;2023-08-06T06:12:06;16.70;99.90
30280;DHT22;17097;50.916;5.344;2023-08-06T06:14:34;16.60;99.90
30280;DHT22;17097;50.916;5.344;2023-08-06T06:16:59;16.70;99.90
30280;DHT22;17097;50.916;5.344;2023-08-06T06:19:26;16.70;99.90
30280;DHT22;17097;50.916;5.344;2023-08-06T06:21:52;16.70;99.90
30280;DHT22;17097;50.916;5.344;2023-08-06T06:24:18;16.50;99.90
30280;DHT22;17097;50.916;5.344;2023-08-06T06:26:44;16.40;99.90
30280;DHT22;17097;50.916;5.344;2023-08-06T06:29:09;16.10;99.90
30280;DHT22;17097;50.916;5.344;2023-08-06T06:31:35;15.80;99.90
30280;DHT22;17097;50.916;5.344;2023-08-06T06:34:01;15.70;99.90
30280;DHT22;17097;50.916;5.344;2023-08-06T06:36:29;15.80;99.90
30280;DHT22;17097;50.916;5.344;2023-08-06T06:38:55;15.60;99.90
30280;DHT22;17097;50.916;5.344;2023-08-06T06:41:21;15.60;99.90
30280;DHT22;17097;50.916;5.344;2023-08-06T06:43:46;15.50;99.90
30280;DHT22;17097;50.916;5.344;2023-08-06T06:46:14;15.60;99.90
30280;DHT22;17097;50.916;5.344;2023-08-06T06:48:42;15.50;99.90
30280;DHT22;17097;50.916;5.344;2023-08-06T06:51:08;15.40;99.90
30280;DHT22;17097;50.916;5.344;2023-08-06T06:53:33;15.40;99.90
30280;DHT22;17097;50.916;5.344;2023-08-06T06:56:03;15.50;99.90
30280;DHT22;17097;50.916;5.344;2023-08-06T06:58:30;15.40;99.90
30280;DHT22;17097;50.916;5.344;2023-08-06T07:00:56;15.50;99.90
30280;DHT22;17097;50.916;5.344;2023-08-06T07:03:21;15.40;99.90
30280;DHT22;17097;50.916;5.344;2023-08-06T07:05:47;15.50;99.90
30280;DHT22;17097;50.916;5.344;2023-08-06T07:08:13;15.40;99.90
30280;DHT22;17097;50.916;5.344;2023-08-06T07:10:42;15.20;99.90
30280;DHT22;17097;50.916;5.344;2023-08-06T07:13:10;15.20;99.90
30280;DHT22;17097;50.916;5.344;2023-08-06T07:15:35;15.30;99.90
30280;DHT22;17097;50.916;5.344;2023-08-06T07:18:04;15.50;99.90
30280;DHT22;17097;50.916;5.344;2023-08-06T07:20:29;15.50;99.90
30280;DHT22;17097;50.916;5.344;2023-08-06T07:22:58;15.40;99.90
30280;DHT22;17097;50.916;5.344;2023-08-06T07:25:26;15.50;99.90
30280;DHT22;17097;50.916;5.344;2023-08-06T07:27:52;15.50;99.90
30280;DHT22;17097;50.916;5.344;2023-08-06T07:30:17;15.60;99.90
30280;DHT22;17097;50.916;5.344;2023-08-06T07:32:43;15.60;99.90
30280;DHT22;17097;50.916;5.344;2023-08-06T07:35:09;15.50;99.90
30280;DHT22;17097;50.916;5.344;2023-08-06T07:37:38;15.60;99.90
30280;DHT22;17097;50.916;5.344;2023-08-06T07:40:05;15.70;99.90
30280;DHT22;17097;50.916;5.344;2023-08-06T07:42:30;15.60;99.90
30280;DHT22;17097;50.916;5.344;2023-08-06T07:44:59;15.60;99.90
30280;DHT22;17097;50.916;5.344;2023-08-06T07:47:25;15.60;99.90
30280;DHT22;17097;50.916;5.344;2023-08-06T07:49:55;15.50;99.90
30280;DHT22;17097;50.916;5.344;2023-08-06T07:52:23;15.50;99.90
30280;DHT22;17097;50.916;5.344;2023-08-06T07:54:49;15.40;99.90
30280;DHT22;17097;50.916;5.344;2023-08-06T07:57:14;15.30;99.90
30280;DHT22;17097;50.916;5.344;2023-08-06T07:59:41;15.50;99.90
30280;DHT22;17097;50.916;5.344;2023-08-06T08:02:06;15.40;99.90
30280;DHT22;17097;50.916;5.344;2023-08-06T08:04:32;15.40;99.90
30280;DHT22;17097;50.916;5.344;2023-08-06T08:06:58;15.40;99.90
30280;DHT22;17097;50.916;5.344;2023-08-06T08:09:23;15.50;99.90
30280;DHT22;17097;50.916;5.344;2023-08-06T08:11:53;15.70;99.90
30280;DHT22;17097;50.916;5.344;2023-08-06T08:14:19;15.70;99.90
30280;DHT22;17097;50.916;5.344;2023-08-06T08:16:45;15.90;99.90
30280;DHT22;17097;50.916;5.344;2023-08-06T08:19:10;15.80;99.90
30280;DHT22;17097;50.916;5.344;2023-08-06T08:21:36;15.90;99.90
30280;DHT22;17097;50.916;5.344;2023-08-06T08:24:04;16.00;99.90
30280;DHT22;17097;50.916;5.344;2023-08-06T08:26:32;16.00;99.90
30280;DHT22;17097;50.916;5.344;2023-08-06T08:28:58;16.00;99.90
30280;DHT22;17097;50.916;5.344;2023-08-06T08:31:24;15.80;99.90
30280;DHT22;17097;50.916;5.344;2023-08-06T08:33:49;15.80;99.90
30280;DHT22;17097;50.916;5.344;2023-08-06T08:36:15;15.90;99.90
30280;DHT22;17097;50.916;5.344;2023-08-06T08:38:41;15.60;99.90
30280;DHT22;17097;50.916;5.344;2023-08-06T08:41:09;15.60;99.90
30280;DHT22;17097;50.916;5.344;2023-08-06T08:43:35;15.70;99.90
30280;DHT22;17097;50.916;5.344;2023-08-06T08:46:02;15.90;99.90
30280;DHT22;17097;50.916;5.344;2023-08-06T08:48:29;15.90;99.90
30280;DHT22;17097;50.916;5.344;2023-08-06T08:50:55;15.90;99.90
30280;DHT22;17097;50.916;5.344;2023-08-06T08:53:21;15.80;99.90
30280;DHT22;17097;50.916;5.344;2023-08-06T08:55:49;15.70;99.90
30280;DHT22;17097;50.916;5.344;2023-08-06T08:58:15;15.70;99.90
30280;DHT22;17097;50.916;5.344;2023-08-06T09:00:46;15.60;99.90
30280;DHT22;17097;50.916;5.344;2023-08-06T09:03:14;15.40;99.90
30280;DHT22;17097;50.916;5.344;2023-08-06T09:05:44;15.60;99.90
30280;DHT22;17097;50.916;5.344;2023-08-06T09:08:15;15.50;99.90
30280;DHT22;17097;50.916;5.344;2023-08-06T09:10:43;15.70;99.90
30280;DHT22;17097;50.916;5.344;2023-08-06T09:13:09;15.80;99.90
30280;DHT22;17097;50.916;5.344;2023-08-06T09:15:35;15.60;99.90
30280;DHT22;17097;50.916;5.344;2023-08-06T09:18:04;15.60;99.90
30280;DHT22;17097;50.916;5.344;2023-08-06T09:20:35;15.60;99.90
30280;DHT22;17097;50.916;5.344;2023-08-06T09:23:11;15.60;99.90
30280;DHT22;17097;50.916;5.344;2023-08-06T09:25:40;15.80;99.90
30280;DHT22;17097;50.916;5.344;2023-08-06T09:28:08;15.90;99.90
30280;DHT22;17097;50.916;5.344;2023-08-06T09:30:36;16.00;99.90
30280;DHT22;17097;50.916;5.344;2023-08-06T09:33:02;16.00;99.90
30280;DHT22;17097;50.916;5.344;2023-08-06T09:35:31;15.90;99.90
30280;DHT22;17097;50.916;5.344;2023-08-06T09:38:07;16.00;99.90
30280;DHT22;17097;50.916;5.344;2023-08-06T09:40:36;16.00;99.90
30280;DHT22;17097;50.916;5.344;2023-08-06T09:43:02;15.90;99.90
30280;DHT22;17097;50.916;5.344;2023-08-06T09:45:34;16.00;99.90
30280;DHT22;17097;50.916;5.344;2023-08-06T09:48:06;16.10;99.90
30280;DHT22;17097;50.916;5.344;2023-08-06T09:50:35;16.20;99.90
30280;DHT22;17097;50.916;5.344;2023-08-06T09:53:06;16.20;99.90
30280;DHT22;17097;50.916;5.344;2023-08-06T09:55:32;16.20;99.90
30280;DHT22;17097;50.916;5.344;2023-08-06T09:57:59;16.00;99.90
30280;DHT22;17097;50.916;5.344;2023-08-06T10:00:25;16.00;99.90
30280;DHT22;17097;50.916;5.344;2023-08-06T10:02:53;16.00;99.90
30280;DHT22;17097;50.916;5.344;2023-08-06T10:05:21;16.00;99.90
30280;DHT22;17097;50.916;5.344;2023-08-06T10:07:49;16.00;99.90
30280;DHT22;17097;50.916;5.344;2023-08-06T10:10:16;16.00;99.90
30280;DHT22;17097;50.916;5.344;2023-08-06T10:12:51;16.20;99.90
30280;DHT22;17097;50.916;5.344;2023-08-06T10:15:22;16.30;99.90
30280;DHT22;17097;50.916;5.344;2023-08-06T10:17:52;16.30;99.90
30280;DHT22;17097;50.916;5.344;2023-08-06T10:20:18;16.20;99.90
30280;DHT22;17097;50.916;5.344;2023-08-06T10:22:46;16.10;99.90
30280;DHT22;17097;50.916;5.344;2023-08-06T10:25:24;16.10;99.90
30280;DHT22;17097;50.916;5.344;2023-08-06T10:27:53;16.00;99.90
30280;DHT22;17097;50.916;5.344;2023-08-06T10:30:30;16.10;99.90
30280;DHT22;17097;50.916;5.344;2023-08-06T10:33:01;16.00;99.90
30280;DHT22;17097;50.916;5.344;2023-08-06T10:35:43;16.10;99.90
30280;DHT22;17097;50.916;5.344;2023-08-06T10:40:48;15.90;99.90
30280;DHT22;17097;50.916;5.344;2023-08-06T10:43:35;15.70;99.90
30280;DHT22;17097;50.916;5.344;2023-08-06T10:46:02;15.70;99.90
30280;DHT22;17097;50.916;5.344;2023-08-06T10:48:38;15.60;99.90
30280;DHT22;17097;50.916;5.344;2023-08-06T10:51:09;15.50;99.90
30280;DHT22;17097;50.916;5.344;2023-08-06T10:53:36;15.50;99.90
30280;DHT22;17097;50.916;5.344;2023-08-06T10:56:20;15.60;99.90
30280;DHT22;17097;50.916;5.344;2023-08-06T10:58:51;15.50;99.90
30280;DHT22;17097;50.916;5.344;2023-08-06T11:01:17;15.40;99.90
30280;DHT22;17097;50.916;5.344;2023-08-06T11:03:46;15.40;99.90
30280;DHT22;17097;50.916;5.344;2023-08-06T11:06:19;15.50;99.90
30280;DHT22;17097;50.916;5.344;2023-08-06T11:08:53;15.40;99.90
30280;DHT22;17097;50.916;5.344;2023-08-06T11:11:19;15.30;99.90
30280;DHT22;17097;50.916;5.344;2023-08-06T11:13:49;15.30;99.90
30280;DHT22;17097;50.916;5.344;2023-08-06T11:16:20;15.40;99.90
30280;DHT22;17097;50.916;5.344;2023-08-06T11:18:46;15.50;99.90
30280;DHT22;17097;50.916;5.344;2023-08-06T11:21:13;15.40;99.90
30280;DHT22;17097;50.916;5.344;2023-08-06T11:23:39;15.50;99.90
30280;DHT22;17097;50.916;5.344;2023-08-06T11:26:05;15.50;99.90
30280;DHT22;17097;50.916;5.344;2023-08-06T11:28:31;15.40;99.90
30280;DHT22;17097;50.916;5.344;2023-08-06T11:30:58;15.40;99.90
30280;DHT22;17097;50.916;5.344;2023-08-06T11:33:30;15.20;99.90
30280;DHT22;17097;50.916;5.344;2023-08-06T11:35:58;15.10;99.90
30280;DHT22;17097;50.916;5.344;2023-08-06T11:38:28;15.20;99.90
30280;DHT22;17097;50.916;5.344;2023-08-06T11:40:59;15.20;99.90
30280;DHT22;17097;50.916;5.344;2023-08-06T11:43:24;15.40;99.90
30280;DHT22;17097;50.916;5.344;2023-08-06T11:45:50;15.70;99.90
30280;DHT22;17097;50.916;5.344;2023-08-06T11:48:17;15.80;99.90
30280;DHT22;17097;50.916;5.344;2023-08-06T11:50:43;15.80;99.90
30280;DHT22;17097;50.916;5.344;2023-08-06T11:53:12;15.70;99.90
30280;DHT22;17097;50.916;5.344;2023-08-06T11:55:38;15.80;99.90
30280;DHT22;17097;50.916;5.344;2023-08-06T11:58:04;15.70;99.90
30280;DHT22;17097;50.916;5.344;2023-08-06T12:00:30;15.80;99.90
30280;DHT22;17097;50.916;5.344;2023-08-06T12:02:56;15.80;99.90
30280;DHT22;17097;50.916;5.344;2023-08-06T12:05:24;15.80;99.90
30280;DHT22;17097;50.916;5.344;2023-08-06T12:07:56;15.80;99.90
30280;DHT22;17097;50.916;5.344;2023-08-06T12:10:24;15.80;99.90
30280;DHT22;17097;50.916;5.344;2023-08-06T12:12:52;15.80;99.90
30280;DHT22;17097;50.916;5.344;2023-08-06T12:15:18;15.70;99.90
30280;DHT22;17097;50.916;5.344;2023-08-06T12:17:46;15.70;99.90
30280;DHT22;17097;50.916;5.344;2023-08-06T12:20:12;15.80;99.90
30280;DHT22;17097;50.916;5.344;2023-08-06T12:22:38;15.90;99.90
30280;DHT22;17097;50.916;5.344;2023-08-06T12:25:06;15.80;99.90
30280;DHT22;17097;50.916;5.344;2023-08-06T12:27:37;15.80;99.90
30280;DHT22;17097;50.916;5.344;2023-08-06T12:30:03;15.60;99.90
30280;DHT22;17097;50.916;5.344;2023-08-06T12:32:32;15.60;99.90
30280;DHT22;17097;50.916;5.344;2023-08-06T12:34:58;15.70;99.90
30280;DHT22;17097;50.916;5.344;2023-08-06T12:37:27;15.80;99.90
30280;DHT22;17097;50.916;5.344;2023-08-06T12:39:52;15.80;99.90
30280;DHT22;17097;50.916;5.344;2023-08-06T12:42:18;15.80;99.90
30280;DHT22;17097;50.916;5.344;2023-08-06T12:44:44;15.80;99.90
30280;DHT22;17097;50.916;5.344;2023-08-06T12:47:09;15.80;99.90
30280;DHT22;17097;50.916;5.344;2023-08-06T12:49:35;15.90;99.90
30280;DHT22;17097;50.916;5.344;2023-08-06T12:52:02;15.70;99.90
30280;DHT22;17097;50.916;5.344;2023-08-06T12:54:31;15.80;99.90
30280;DHT22;17097;50.916;5.344;2023-08-06T12:57:02;15.70;99.90
30280;DHT22;17097;50.916;5.344;2023-08-06T12:59:28;15.70;99.90
30280;DHT22;17097;50.916;5.344;2023-08-06T13:01:53;15.80;99.90
30280;DHT22;17097;50.916;5.344;2023-08-06T13:04:19;15.50;99.90
30280;DHT22;17097;50.916;5.344;2023-08-06T13:06:47;15.50;99.90
30280;DHT22;17097;50.916;5.344;2023-08-06T13:09:13;15.50;99.90
30280;DHT22;17097;50.916;5.344;2023-08-06T13:11:39;15.60;99.90
30280;DHT22;17097;50.916;5.344;2023-08-06T13:14:07;15.80;99.90
30280;DHT22;17097;50.916;5.344;2023-08-06T13:16:33;15.60;99.90
30280;DHT22;17097;50.916;5.344;2023-08-06T13:19:01;15.40;99.90
30280;DHT22;17097;50.916;5.344;2023-08-06T13:21:35;15.30;99.90
30280;DHT22;17097;50.916;5.344;2023-08-06T13:24:02;15.50;99.90
30280;DHT22;17097;50.916;5.344;2023-08-06T13:26:31;15.50;99.90
30280;DHT22;17097;50.916;5.344;2023-08-06T13:28:58;15.60;99.90
30280;DHT22;17097;50.916;5.344;2023-08-06T13:31:24;15.60;99.90
30280;DHT22;17097;50.916;5.344;2023-08-06T13:33:50;15.70;99.90
30280;DHT22;17097;50.916;5.344;2023-08-06T13:36:19;15.50;99.90
30280;DHT22;17097;50.916;5.344;2023-08-06T13:38:45;15.50;99.90
30280;DHT22;17097;50.916;5.344;2023-08-06T13:41:11;15.60;99.90
30280;DHT22;17097;50.916;5.344;2023-08-06T13:43:36;15.60;99.90
30280;DHT22;17097;50.916;5.344;2023-08-06T13:46:02;15.50;99.90
30280;DHT22;17097;50.916;5.344;2023-08-06T13:48:28;15.70;99.90
30280;DHT22;17097;50.916;5.344;2023-08-06T13:50:53;15.60;99.90
30280;DHT22;17097;50.916;5.344;2023-08-06T13:53:21;15.60;99.90
30280;DHT22;17097;50.916;5.344;2023-08-06T13:55:47;15.50;99.90
30280;DHT22;17097;50.916;5.344;2023-08-06T13:58:12;15.60;99.90
30280;DHT22;17097;50.916;5.344;2023-08-06T14:00:38;15.60;99.90
30280;DHT22;17097;50.916;5.344;2023-08-06T14:03:04;15.50;99.90
30280;DHT22;17097;50.916;5.344;2023-08-06T14:05:29;15.60;99.90
30280;DHT22;17097;50.916;5.344;2023-08-06T14:07:59;15.40;99.90
30280;DHT22;17097;50.916;5.344;2023-08-06T14:10:25;15.30;99.90
30280;DHT22;17097;50.916;5.344;2023-08-06T14:12:51;15.40;99.90
30280;DHT22;17097;50.916;5.344;2023-08-06T14:15:19;15.40;99.90
30280;DHT22;17097;50.916;5.344;2023-08-06T14:17:45;15.40;99.90
30280;DHT22;17097;50.916;5.344;2023-08-06T14:20:10;15.50;99.90
30280;DHT22;17097;50.916;5.344;2023-08-06T14:22:37;15.30;99.90
30280;DHT22;17097;50.916;5.344;2023-08-06T14:25:03;15.20;99.90
30280;DHT22;17097;50.916;5.344;2023-08-06T14:27:29;15.20;99.90
30280;DHT22;17097;50.916;5.344;2023-08-06T14:29:55;15.30;99.90
30280;DHT22;17097;50.916;5.344;2023-08-06T14:32:20;15.30;99.90
30280;DHT22;17097;50.916;5.344;2023-08-06T14:34:46;15.40;99.90
30280;DHT22;17097;50.916;5.344;2023-08-06T14:37:12;15.30;99.90
30280;DHT22;17097;50.916;5.344;2023-08-06T14:39:38;15.40;99.90
30280;DHT22;17097;50.916;5.344;2023-08-06T14:42:04;15.50;99.90
30280;DHT22;17097;50.916;5.344;2023-08-06T14:44:30;15.30;99.90
30280;DHT22;17097;50.916;5.344;2023-08-06T14:46:56;15.20;99.90
30280;DHT22;17097;50.916;5.344;2023-08-06T14:49:23;15.20;99.90
30280;DHT22;17097;50.916;5.344;2023-08-06T14:51:48;15.00;99.90
30280;DHT22;17097;50.916;5.344;2023-08-06T14:54:14;15.10;99.90
30280;DHT22;17097;50.916;5.344;2023-08-06T14:56:40;15.10;99.90
30280;DHT22;17097;50.916;5.344;2023-08-06T14:59:05;15.10;99.90
30280;DHT22;17097;50.916;5.344;2023-08-06T15:01:33;15.00;99.90
30280;DHT22;17097;50.916;5.344;2023-08-06T15:03:59;14.90;99.90
30280;DHT22;17097;50.916;5.344;2023-08-06T15:06:24;14.90;99.90
30280;DHT22;17097;50.916;5.344;2023-08-06T15:08:50;15.10;99.90
30280;DHT22;17097;50.916;5.344;2023-08-06T15:11:16;15.10;99.90
30280;DHT22;17097;50.916;5.344;2023-08-06T15:13:41;15.10;99.90
30280;DHT22;17097;50.916;5.344;2023-08-06T15:16:09;15.00;99.90
30280;DHT22;17097;50.916;5.344;2023-08-06T15:18:35;15.00;99.90
30280;DHT22;17097;50.916;5.344;2023-08-06T15:21:01;15.10;99.90
30280;DHT22;17097;50.916;5.344;2023-08-06T15:23:26;14.90;99.90
30280;DHT22;17097;50.916;5.344;2023-08-06T15:25:52;15.00;99.90
30280;DHT22;17097;50.916;5.344;2023-08-06T15:28:17;15.10;99.90
30280;DHT22;17097;50.916;5.344;2023-08-06T15:30:49;15.20;99.90
30280;DHT22;17097;50.916;5.344;2023-08-06T15:33:18;15.10;99.90
30280;DHT22;17097;50.916;5.344;2023-08-06T15:35:44;15.20;99.90
30280;DHT22;17097;50.916;5.344;2023-08-06T15:38:11;15.00;99.90
30280;DHT22;17097;50.916;5.344;2023-08-06T15:40:37;15.00;99.90